createdAt,value
2022-11-08T00:01:33.820Z,3.23
2022-11-08T00:04:06.170Z,3.50
2022-11-08T00:06:33.794Z,3.10
2022-11-08T00:09:01.264Z,2.97
2022-11-08T00:11:28.773Z,2.90
2022-11-08T00:13:56.231Z,3.03
2022-11-08T00:16:23.686Z,2.60
2022-11-08T00:18:51.221Z,3.10
2022-11-08T00:21:18.745Z,3.27
2022-11-08T00:23:46.173Z,2.83
2022-11-08T00:26:13.669Z,3.10
2022-11-08T00:28:41.124Z,3.37
2022-11-08T00:31:08.586Z,3.50
2022-11-08T00:33:36.109Z,2.70
2022-11-08T00:36:03.588Z,2.27
2022-11-08T00:38:31.047Z,2.87
2022-11-08T00:40:58.540Z,2.30
2022-11-08T00:43:25.984Z,2.70
2022-11-08T00:45:53.554Z,2.33
2022-11-08T00:48:22.552Z,3.00
2022-11-08T00:50:50.033Z,2.17
2022-11-08T00:53:17.444Z,2.70
2022-11-08T00:55:44.876Z,2.10
2022-11-08T00:58:12.381Z,2.57
2022-11-08T01:00:39.870Z,2.40
2022-11-08T01:03:07.360Z,2.37
2022-11-08T01:05:37.183Z,2.70
2022-11-08T01:08:04.723Z,2.47
2022-11-08T01:10:32.166Z,3.00
2022-11-08T01:12:59.624Z,2.90
2022-11-08T01:15:27.234Z,3.10
2022-11-08T01:17:54.903Z,2.43
2022-11-08T01:20:22.446Z,2.53
2022-11-08T01:22:49.935Z,2.23
2022-11-08T01:25:17.421Z,2.90
2022-11-08T01:27:47.412Z,2.60
2022-11-08T01:30:14.945Z,2.53
2022-11-08T01:32:42.427Z,2.57
2022-11-08T01:35:10.100Z,2.20
2022-11-08T01:37:37.571Z,2.10
2022-11-08T01:40:05.574Z,2.57
2022-11-08T01:42:33.800Z,2.27
2022-11-08T01:45:02.646Z,2.10
2022-11-08T01:47:30.290Z,2.40
2022-11-08T01:49:59.870Z,2.60
2022-11-08T01:52:31.251Z,1.80
2022-11-08T01:55:07.591Z,2.30
2022-11-08T01:57:40.808Z,2.00
2022-11-08T02:00:09.567Z,2.83
2022-11-08T02:02:38.354Z,2.37
2022-11-08T02:05:07.380Z,1.93
2022-11-08T02:07:35.142Z,3.00
2022-11-08T02:10:03.237Z,2.40
2022-11-08T02:12:30.726Z,2.53
2022-11-08T02:14:58.240Z,2.10
2022-11-08T02:17:26.866Z,2.63
2022-11-08T02:19:54.387Z,2.23
2022-11-08T02:22:31.980Z,2.70
2022-11-08T02:24:59.640Z,2.27
2022-11-08T02:27:27.114Z,2.50
2022-11-08T02:29:54.908Z,2.57
2022-11-08T02:32:22.570Z,2.43
2022-11-08T02:34:53.159Z,2.30
2022-11-08T02:37:21.598Z,2.30
2022-11-08T02:39:49.078Z,2.67
2022-11-08T02:42:17.570Z,2.63
2022-11-08T02:44:45.426Z,2.73
2022-11-08T02:47:12.985Z,2.30
2022-11-08T02:49:40.498Z,2.27
2022-11-08T02:52:08.274Z,2.67
2022-11-08T02:54:35.839Z,2.10
2022-11-08T02:57:03.311Z,2.40
2022-11-08T02:59:30.765Z,2.20
2022-11-08T03:01:58.399Z,2.67
2022-11-08T03:04:25.935Z,2.50
2022-11-08T03:06:53.376Z,2.97
2022-11-08T03:09:20.881Z,2.37
2022-11-08T03:11:48.346Z,2.50
2022-11-08T03:14:15.800Z,2.77
2022-11-08T03:16:43.270Z,2.90
2022-11-08T03:19:11.531Z,2.60
2022-11-08T03:21:38.991Z,2.80
2022-11-08T03:24:06.625Z,3.30
2022-11-08T03:26:34.114Z,2.93
2022-11-08T03:29:01.632Z,3.50
2022-11-08T03:31:29.125Z,3.50
2022-11-08T03:33:56.563Z,2.57
2022-11-08T03:36:23.981Z,3.13
2022-11-08T03:38:51.460Z,2.83
2022-11-08T03:41:18.922Z,3.00
2022-11-08T03:43:46.387Z,3.00
2022-11-08T03:46:13.850Z,2.83
2022-11-08T03:48:41.281Z,2.50
2022-11-08T03:51:08.794Z,2.57
2022-11-08T03:53:36.201Z,3.17
2022-11-08T03:56:03.681Z,3.03
2022-11-08T03:58:31.102Z,3.07
2022-11-08T04:00:58.639Z,3.50
2022-11-08T04:03:26.141Z,3.30
2022-11-08T04:05:53.848Z,2.70
2022-11-08T04:08:21.395Z,2.80
2022-11-08T04:10:48.906Z,3.03
2022-11-08T04:13:16.332Z,2.50
2022-11-08T04:15:43.783Z,2.90
2022-11-08T04:18:11.225Z,3.20
2022-11-08T04:20:42.935Z,3.07
2022-11-08T04:23:10.428Z,3.50
2022-11-08T04:25:37.859Z,2.73
2022-11-08T04:28:05.467Z,2.47
2022-11-08T04:30:32.936Z,3.10
2022-11-08T04:33:01.435Z,2.93
2022-11-08T04:35:29.437Z,2.87
2022-11-08T04:38:01.183Z,2.63
2022-11-08T04:40:30.367Z,2.73
2022-11-08T04:42:57.831Z,2.50
2022-11-08T04:45:25.303Z,2.57
2022-11-08T04:47:52.836Z,2.67
2022-11-08T04:50:20.280Z,3.03
2022-11-08T04:52:54.525Z,2.83
2022-11-08T04:55:22.866Z,2.40
2022-11-08T04:57:50.333Z,2.73
2022-11-08T05:00:18.248Z,2.43
2022-11-08T05:02:45.970Z,3.10
2022-11-08T05:05:13.565Z,3.13
2022-11-08T05:07:41.094Z,2.27
2022-11-08T05:10:08.758Z,2.00
2022-11-08T05:12:36.198Z,2.70
2022-11-08T05:15:03.702Z,2.40
2022-11-08T05:17:31.189Z,2.77
2022-11-08T05:19:58.710Z,2.80
2022-11-08T05:22:26.133Z,2.40
2022-11-08T05:24:53.603Z,2.70
2022-11-08T05:27:21.077Z,3.30
2022-11-08T05:29:48.481Z,2.93
2022-11-08T05:32:15.975Z,2.67
2022-11-08T05:34:43.435Z,2.97
2022-11-08T05:37:10.910Z,2.73
2022-11-08T05:39:38.326Z,2.50
2022-11-08T05:42:05.938Z,2.60
2022-11-08T05:44:33.404Z,2.80
2022-11-08T05:47:00.890Z,3.33
2022-11-08T05:49:28.336Z,2.63
2022-11-08T05:51:56.312Z,2.70
2022-11-08T05:54:23.841Z,2.63
2022-11-08T05:56:51.322Z,3.40
2022-11-08T05:59:18.721Z,3.10
2022-11-08T06:01:46.263Z,3.00
2022-11-08T06:04:13.814Z,2.90
2022-11-08T06:06:41.322Z,3.07
2022-11-08T06:09:08.780Z,2.87
2022-11-08T06:11:36.293Z,2.83
2022-11-08T06:14:03.785Z,3.57
2022-11-08T06:16:31.262Z,3.23
2022-11-08T06:18:58.716Z,2.70
2022-11-08T06:21:26.215Z,3.50
2022-11-08T06:23:54.388Z,2.53
2022-11-08T06:26:22.935Z,3.00
2022-11-08T06:28:50.503Z,2.70
2022-11-08T06:31:17.962Z,2.83
2022-11-08T06:33:45.848Z,3.30
2022-11-08T06:36:13.320Z,2.87
2022-11-08T06:38:40.737Z,2.87
2022-11-08T06:41:08.181Z,2.97
2022-11-08T06:43:35.702Z,2.30
2022-11-08T06:46:03.381Z,2.67
2022-11-08T06:48:35.336Z,2.50
2022-11-08T06:51:03.938Z,2.50
2022-11-08T06:53:31.410Z,2.60
2022-11-08T06:56:02.971Z,2.60
2022-11-08T06:58:30.621Z,2.40
2022-11-08T07:00:58.356Z,2.97
2022-11-08T07:03:25.842Z,2.53
2022-11-08T07:05:53.277Z,2.13
2022-11-08T07:08:23.730Z,2.43
2022-11-08T07:10:52.075Z,2.30
2022-11-08T07:13:19.850Z,2.50
2022-11-08T07:15:47.619Z,2.40
2022-11-08T07:18:15.980Z,2.27
2022-11-08T07:20:43.689Z,2.10
2022-11-08T07:23:11.716Z,2.20
2022-11-08T07:25:39.289Z,2.17
2022-11-08T07:28:07.808Z,2.57
2022-11-08T07:30:35.797Z,2.20
2022-11-08T07:33:03.484Z,2.00
2022-11-08T07:35:31.143Z,2.13
2022-11-08T07:37:58.581Z,2.13
2022-11-08T07:40:26.155Z,2.20
2022-11-08T07:45:41.435Z,1.90
2022-11-08T07:48:12.011Z,2.70
2022-11-08T07:50:41.048Z,2.17
2022-11-08T07:53:08.752Z,2.30
2022-11-08T07:55:37.202Z,1.80
2022-11-08T07:58:04.990Z,2.20
2022-11-08T08:00:33.985Z,2.20
2022-11-08T08:03:02.179Z,1.70
2022-11-08T08:05:30.932Z,2.37
2022-11-08T08:07:59.000Z,1.83
2022-11-08T08:10:27.554Z,1.80
2022-11-08T08:12:55.763Z,2.00
2022-11-08T08:15:23.426Z,2.00
2022-11-08T08:17:51.032Z,1.90
2022-11-08T08:20:18.560Z,2.77
2022-11-08T08:22:46.776Z,2.20
2022-11-08T08:25:14.455Z,2.07
2022-11-08T08:27:46.601Z,2.40
2022-11-08T08:30:14.075Z,2.20
2022-11-08T08:32:41.500Z,1.83
2022-11-08T08:35:09.129Z,2.30
2022-11-08T08:37:36.571Z,1.83
2022-11-08T08:40:04.112Z,2.30
2022-11-08T08:42:33.091Z,1.83
2022-11-08T08:45:00.595Z,2.10
2022-11-08T08:47:28.511Z,1.97
2022-11-08T08:49:55.996Z,1.87
2022-11-08T08:52:23.522Z,2.30
2022-11-08T08:54:50.981Z,2.10
2022-11-08T08:57:18.442Z,2.27
2022-11-08T09:02:34.633Z,2.10
2022-11-08T09:05:02.844Z,2.50
2022-11-08T09:07:30.269Z,2.27
2022-11-08T09:09:57.761Z,2.07
2022-11-08T09:12:25.217Z,1.83
2022-11-08T09:14:52.676Z,2.00
2022-11-08T09:17:20.159Z,2.20
2022-11-08T09:19:47.574Z,1.80
2022-11-08T09:22:15.089Z,2.33
2022-11-08T09:24:42.582Z,1.90
2022-11-08T09:27:10.187Z,2.63
2022-11-08T09:29:37.687Z,2.17
2022-11-08T09:32:05.217Z,2.30
2022-11-08T09:34:32.725Z,2.10
2022-11-08T09:37:00.334Z,2.20
2022-11-08T09:39:27.891Z,2.03
2022-11-08T09:42:01.660Z,2.00
2022-11-08T09:44:29.169Z,2.13
2022-11-08T09:46:57.866Z,2.70
2022-11-08T09:49:25.335Z,2.47
2022-11-08T09:51:55.578Z,2.00
2022-11-08T09:54:28.811Z,2.03
2022-11-08T09:56:56.324Z,2.00
2022-11-08T09:59:32.364Z,2.00
2022-11-08T10:01:59.996Z,1.63
2022-11-08T10:04:31.606Z,2.13
2022-11-08T10:07:08.497Z,2.00
2022-11-08T10:09:42.314Z,1.63
2022-11-08T10:12:16.292Z,1.80
2022-11-08T10:14:54.589Z,1.93
2022-11-08T10:17:40.457Z,2.20
2022-11-08T10:20:15.792Z,2.20
2022-11-08T10:22:46.321Z,2.30
2022-11-08T10:25:20.109Z,2.20
2022-11-08T10:27:47.692Z,2.07
2022-11-08T10:30:20.587Z,1.87
2022-11-08T10:32:50.909Z,2.00
2022-11-08T10:35:22.618Z,1.80
2022-11-08T10:37:51.651Z,2.40
2022-11-08T10:40:30.079Z,2.50
2022-11-08T10:43:05.482Z,2.40
2022-11-08T10:45:35.803Z,2.40
2022-11-08T10:48:03.861Z,2.13
2022-11-08T10:50:51.657Z,2.00
2022-11-08T10:53:23.161Z,2.00
2022-11-08T10:55:52.386Z,2.00
2022-11-08T10:58:28.971Z,2.00
2022-11-08T11:01:00.836Z,1.70
2022-11-08T11:03:28.342Z,1.77
2022-11-08T11:05:58.731Z,2.00
2022-11-08T11:08:26.262Z,1.80
2022-11-08T11:10:53.757Z,1.90
2022-11-08T11:13:22.649Z,2.13
2022-11-08T11:15:52.004Z,2.10
2022-11-08T11:18:22.609Z,1.63
2022-11-08T11:20:59.277Z,1.80
2022-11-08T11:23:44.558Z,2.03
2022-11-08T11:26:20.537Z,1.83
2022-11-08T11:29:06.421Z,2.10
2022-11-08T11:31:35.250Z,1.60
2022-11-08T11:34:18.156Z,1.93
2022-11-08T11:36:45.656Z,1.83
2022-11-08T11:39:16.437Z,2.07
2022-11-08T11:41:47.123Z,1.90
2022-11-08T11:44:14.548Z,1.90
2022-11-08T11:49:49.724Z,2.00
2022-11-08T11:52:19.142Z,1.90
2022-11-08T11:54:48.624Z,2.00
2022-11-08T11:57:28.175Z,2.13
2022-11-08T11:59:58.385Z,2.07
2022-11-08T12:02:25.867Z,2.20
2022-11-08T12:04:53.345Z,1.50
2022-11-08T12:07:27.600Z,1.87
2022-11-08T12:10:13.661Z,2.30
2022-11-08T12:12:50.397Z,1.93
2022-11-08T12:15:25.048Z,1.60
2022-11-08T12:17:55.515Z,1.83
2022-11-08T12:20:27.393Z,1.90
2022-11-08T12:22:58.037Z,1.80
2022-11-08T12:25:31.675Z,2.10
2022-11-08T12:27:59.208Z,2.20
2022-11-08T12:30:36.116Z,1.60
2022-11-08T12:33:14.852Z,2.10
2022-11-08T12:36:00.495Z,1.83
2022-11-08T12:38:40.056Z,1.50
2022-11-08T12:41:10.663Z,1.90
2022-11-08T12:43:40.830Z,2.20
2022-11-08T12:46:10.598Z,2.03
2022-11-08T12:48:38.016Z,1.90
2022-11-08T12:51:24.361Z,2.23
2022-11-08T12:54:00.786Z,2.00
2022-11-08T12:56:30.523Z,1.40
2022-11-08T12:58:58.131Z,1.73
2022-11-08T13:01:26.162Z,2.00
2022-11-08T13:04:06.038Z,1.50
2022-11-08T13:06:52.500Z,2.17
2022-11-08T13:09:42.734Z,1.70
2022-11-08T13:12:28.141Z,2.00
2022-11-08T13:14:55.996Z,2.00
2022-11-08T13:17:24.480Z,1.80
2022-11-08T13:19:51.939Z,2.30
2022-11-08T13:22:31.343Z,1.80
2022-11-08T13:25:19.039Z,2.13
2022-11-08T13:27:46.848Z,1.90
2022-11-08T13:30:26.664Z,2.03
2022-11-08T13:33:14.617Z,2.27
2022-11-08T13:35:44.839Z,2.00
2022-11-08T13:38:22.289Z,2.10
2022-11-08T13:41:19.200Z,2.30
2022-11-08T13:43:47.349Z,1.80
2022-11-08T13:46:20.991Z,2.07
2022-11-08T13:49:05.408Z,1.90
2022-11-08T13:51:42.130Z,1.70
2022-11-08T13:54:21.541Z,1.80
2022-11-08T13:56:53.176Z,2.30
2022-11-08T13:59:33.016Z,1.70
2022-11-08T14:02:03.759Z,1.70
2022-11-08T14:04:32.735Z,2.07
2022-11-08T14:07:26.620Z,1.87
2022-11-08T14:10:18.179Z,2.10
2022-11-08T14:13:04.263Z,2.10
2022-11-08T14:15:43.201Z,1.90
2022-11-08T14:18:22.947Z,2.10
2022-11-08T14:20:50.489Z,1.93
2022-11-08T14:23:21.380Z,2.20
2022-11-08T14:25:52.324Z,1.70
2022-11-08T14:28:24.417Z,1.57
2022-11-08T14:30:56.427Z,1.60
2022-11-08T14:33:26.571Z,2.00
2022-11-08T14:35:55.678Z,1.80
2022-11-08T14:38:23.277Z,1.40
2022-11-08T14:40:55.401Z,1.43
2022-11-08T14:43:23.353Z,1.40
2022-11-08T14:45:51.201Z,1.77
2022-11-08T14:48:29.040Z,1.40
2022-11-08T14:51:03.104Z,1.73
2022-11-08T14:53:31.717Z,1.23
2022-11-08T14:56:03.823Z,1.50
2022-11-08T14:58:31.519Z,1.70
2022-11-08T15:00:59.698Z,1.50
2022-11-08T15:03:29.016Z,2.00
2022-11-08T15:06:12.569Z,1.90
2022-11-08T15:08:49.140Z,2.10
2022-11-08T15:11:25.437Z,1.80
2022-11-08T15:13:52.877Z,1.83
2022-11-08T15:16:20.335Z,2.20
2022-11-08T15:18:48.029Z,1.33
2022-11-08T15:21:23.056Z,1.70
2022-11-08T15:23:54.890Z,1.80
2022-11-08T15:26:24.074Z,1.23
2022-11-08T15:28:59.006Z,1.60
2022-11-08T15:31:27.828Z,1.37
2022-11-08T15:33:55.297Z,1.37
2022-11-08T15:36:27.923Z,1.70
2022-11-08T15:38:55.394Z,1.60
2022-11-08T15:41:30.262Z,2.00
2022-11-08T15:44:06.930Z,1.60
2022-11-08T15:46:36.626Z,1.60
2022-11-08T15:49:15.662Z,1.50
2022-11-08T15:51:43.199Z,1.70
2022-11-08T15:54:10.636Z,1.60
2022-11-08T15:56:39.337Z,1.73
2022-11-08T15:59:06.847Z,1.77
2022-11-08T16:01:36.641Z,1.83
2022-11-08T16:04:11.964Z,1.80
2022-11-08T16:06:39.419Z,2.00
2022-11-08T16:09:07.035Z,1.50
2022-11-08T16:11:34.835Z,1.47
2022-11-08T16:14:02.279Z,1.93
2022-11-08T16:16:34.871Z,1.50
2022-11-08T16:19:02.883Z,1.97
2022-11-08T16:21:30.405Z,1.60
2022-11-08T16:23:57.862Z,2.10
2022-11-08T16:26:25.292Z,1.77
2022-11-08T16:28:52.788Z,1.70
2022-11-08T16:31:20.219Z,1.80
2022-11-08T16:33:48.247Z,1.70
2022-11-08T16:36:20.667Z,2.33
2022-11-08T16:38:55.630Z,1.70
2022-11-08T16:41:23.880Z,1.70
2022-11-08T16:43:51.297Z,2.13
2022-11-08T16:46:20.517Z,1.90
2022-11-08T16:48:48.940Z,1.90
2022-11-08T16:51:18.181Z,1.40
2022-11-08T16:53:48.547Z,1.60
2022-11-08T16:56:16.038Z,1.27
2022-11-08T16:58:43.798Z,1.77
2022-11-08T17:01:14.330Z,1.33
2022-11-08T17:03:41.827Z,1.90
2022-11-08T17:06:12.866Z,1.63
2022-11-08T17:08:40.401Z,1.83
2022-11-08T17:11:07.950Z,1.93
2022-11-08T17:13:40.311Z,2.03
2022-11-08T17:16:09.811Z,1.90
2022-11-08T17:18:37.377Z,1.87
2022-11-08T17:21:23.228Z,2.30
2022-11-08T17:23:53.248Z,1.80
2022-11-08T17:26:20.722Z,1.80
2022-11-08T17:28:48.280Z,1.73
2022-11-08T17:31:17.307Z,2.07
2022-11-08T17:33:44.835Z,2.27
2022-11-08T17:36:13.247Z,2.10
2022-11-08T17:38:41.570Z,1.97
2022-11-08T17:41:13.936Z,1.90
2022-11-08T17:43:42.152Z,1.80
2022-11-08T17:46:10.038Z,2.13
2022-11-08T17:48:38.214Z,1.90
2022-11-08T17:51:05.764Z,2.17
2022-11-08T17:53:33.791Z,2.20
2022-11-08T17:56:03.892Z,2.20
2022-11-08T17:58:31.475Z,2.27
2022-11-08T18:00:59.174Z,1.87
2022-11-08T18:03:27.103Z,2.30
2022-11-08T18:05:58.836Z,2.30
2022-11-08T18:08:27.377Z,1.73
2022-11-08T18:10:55.385Z,2.00
2022-11-08T18:13:23.126Z,2.13
2022-11-08T18:15:50.923Z,1.60
2022-11-08T18:18:18.809Z,1.83
2022-11-08T18:20:46.361Z,1.63
2022-11-08T18:23:13.883Z,1.70
2022-11-08T18:25:41.435Z,1.30
2022-11-08T18:28:09.081Z,1.60
2022-11-08T18:30:54.750Z,1.60
2022-11-08T18:33:22.457Z,1.77
2022-11-08T18:35:50.124Z,1.77
2022-11-08T18:38:17.655Z,1.80
2022-11-08T18:40:45.462Z,1.60
2022-11-08T18:43:12.910Z,1.33
2022-11-08T18:45:40.517Z,1.50
2022-11-08T18:48:08.031Z,1.90
2022-11-08T18:50:35.824Z,1.63
2022-11-08T18:53:15.219Z,1.73
2022-11-08T18:55:44.657Z,1.30
2022-11-08T18:58:12.082Z,1.40
2022-11-08T19:00:39.529Z,1.80
2022-11-08T19:03:07.010Z,1.77
2022-11-08T19:05:34.534Z,1.73
2022-11-08T19:08:02.067Z,1.73
2022-11-08T19:10:29.593Z,1.70
2022-11-08T19:12:57.021Z,1.93
2022-11-08T19:15:24.558Z,1.90
2022-11-08T19:17:52.412Z,1.77
2022-11-08T19:20:20.928Z,1.53
2022-11-08T19:22:50.758Z,1.93
2022-11-08T19:25:18.291Z,1.60
2022-11-08T19:27:45.771Z,3.93
2022-11-08T19:30:13.482Z,5.00
2022-11-08T19:32:40.949Z,4.40
2022-11-08T19:35:08.684Z,2.50
2022-11-08T19:37:36.675Z,2.43
2022-11-08T19:40:04.597Z,2.47
2022-11-08T19:42:32.189Z,2.17
2022-11-08T19:44:59.704Z,2.10
2022-11-08T19:47:27.213Z,2.23
2022-11-08T19:49:54.696Z,2.33
2022-11-08T19:52:22.161Z,2.73
2022-11-08T19:54:49.652Z,2.17
2022-11-08T19:57:17.162Z,2.60
2022-11-08T19:59:44.649Z,3.27
2022-11-08T20:02:12.250Z,2.40
2022-11-08T20:04:39.869Z,2.40
2022-11-08T20:07:07.663Z,2.03
2022-11-08T20:09:35.239Z,2.27
2022-11-08T20:12:02.874Z,2.00
2022-11-08T20:14:30.330Z,1.87
2022-11-08T20:16:57.927Z,2.00
2022-11-08T20:19:25.511Z,2.10
2022-11-08T20:21:56.274Z,1.70
2022-11-08T20:24:24.100Z,1.80
2022-11-08T20:26:51.555Z,2.10
2022-11-08T20:29:19.107Z,1.93
2022-11-08T20:31:46.741Z,1.90
2022-11-08T20:34:14.274Z,2.23
2022-11-08T20:36:41.919Z,2.10
2022-11-08T20:39:11.903Z,2.20
2022-11-08T20:41:39.509Z,1.93
2022-11-08T20:44:07.834Z,1.70
2022-11-08T20:46:35.983Z,2.20
2022-11-08T20:49:04.023Z,2.30
2022-11-08T20:51:32.291Z,1.90
2022-11-08T20:54:00.573Z,1.90
2022-11-08T20:56:28.333Z,1.97
2022-11-08T20:58:55.893Z,1.93
2022-11-08T21:01:24.439Z,2.00
2022-11-08T21:03:52.015Z,1.80
2022-11-08T21:06:21.019Z,2.13
2022-11-08T21:09:25.553Z,1.90
2022-11-08T21:11:36.281Z,2.03
2022-11-08T21:14:04.534Z,2.33
2022-11-08T21:16:46.825Z,1.93
2022-11-08T21:19:19.880Z,1.90
2022-11-08T21:21:47.518Z,2.30
2022-11-08T21:24:15.022Z,2.20
2022-11-08T21:26:42.477Z,2.00
2022-11-08T21:29:10.012Z,2.13
2022-11-08T21:31:37.471Z,2.67
2022-11-08T21:34:04.982Z,2.53
2022-11-08T21:36:32.584Z,2.37
2022-11-08T21:39:00.031Z,2.47
2022-11-08T21:41:27.521Z,2.50
2022-11-08T21:43:59.132Z,2.73
2022-11-08T21:46:27.031Z,2.33
2022-11-08T21:48:58.528Z,2.40
2022-11-08T21:51:26.540Z,2.53
2022-11-08T21:53:55.947Z,2.53
2022-11-08T21:56:24.580Z,2.33
2022-11-08T21:58:52.191Z,2.80
2022-11-08T22:01:20.111Z,2.47
2022-11-08T22:03:48.330Z,2.27
2022-11-08T22:06:15.777Z,2.03
2022-11-08T22:08:43.270Z,2.30
2022-11-08T22:11:10.732Z,2.30
2022-11-08T22:13:38.182Z,2.13
2022-11-08T22:16:05.829Z,2.50
2022-11-08T22:21:20.755Z,3.03
2022-11-08T22:23:48.259Z,2.80
2022-11-08T22:26:15.777Z,2.60
2022-11-08T22:28:43.191Z,2.60
2022-11-08T22:31:10.660Z,2.63
2022-11-08T22:33:38.073Z,2.37
2022-11-08T22:36:05.628Z,2.40
2022-11-08T22:38:36.208Z,2.63
2022-11-08T22:41:03.987Z,2.20
2022-11-08T22:43:31.642Z,2.60
2022-11-08T22:45:59.047Z,2.47
2022-11-08T22:48:26.489Z,2.97
2022-11-08T22:50:53.974Z,2.20
2022-11-08T22:53:21.609Z,2.83
2022-11-08T22:55:49.210Z,2.20
2022-11-08T22:58:16.615Z,2.63
2022-11-08T23:00:44.127Z,2.50
2022-11-08T23:03:11.613Z,2.27
2022-11-08T23:05:39.043Z,2.50
2022-11-08T23:08:06.560Z,2.33
2022-11-08T23:10:33.967Z,2.40
2022-11-08T23:13:01.376Z,2.37
2022-11-08T23:15:28.822Z,2.10
2022-11-08T23:17:56.667Z,2.27
2022-11-08T23:20:24.160Z,2.23
2022-11-08T23:22:51.589Z,2.20
2022-11-08T23:25:19.031Z,2.10
2022-11-08T23:27:46.461Z,1.93
2022-11-08T23:30:15.312Z,2.20
2022-11-08T23:32:43.877Z,2.20
2022-11-08T23:35:11.844Z,2.63
2022-11-08T23:37:39.548Z,2.43
2022-11-08T23:40:08.106Z,2.27
2022-11-08T23:42:35.496Z,2.00
2022-11-08T23:45:02.918Z,2.30
2022-11-08T23:47:30.378Z,2.30
2022-11-08T23:49:57.847Z,2.60
2022-11-08T23:52:25.293Z,2.50
2022-11-08T23:54:52.703Z,2.00
2022-11-08T23:57:20.174Z,2.30
2022-11-08T23:59:47.686Z,2.00
